Time;durP1;ratioP1;P1;durP2;ratioP2;P2;SDS_P1;SDS_P2;PMS_P1;PMS_P2;Temp;Humidity;BMP_temperature;BMP_pressure;BME280_temperature;BME280_humidity;BME280_pressure;Samples;Min_cycle;Max_cycle;Signal;HPM_P1;HPM_P2
2022/05/19 00:01:01;;;;;;;17.17;7.97;;;;;;;17.42;77.64;101735.84;5014160;28;20029;-74
2022/05/19 00:03:35;;;;;;;15.90;7.72;;;;;;;17.56;77.06;101742.59;4996547;28;20021;-73
2022/05/19 00:06:01;;;;;;;15.13;8.07;;;;;;;17.45;77.01;101724.97;5014300;28;20069;-73
2022/05/19 00:08:27;;;;;;;16.00;8.32;;;;;;;17.51;76.91;101726.75;5014118;28;20029;-73
2022/05/19 00:10:57;;;;;;;11.13;7.55;;;;;;;17.56;76.61;101715.66;4996332;28;20096;-73
2022/05/19 00:13:24;;;;;;;14.13;7.57;;;;;;;17.51;77.22;101712.88;5012535;28;20457;-73
2022/05/19 00:15:49;;;;;;;16.92;7.60;;;;;;;17.47;77.45;101703.88;5014065;28;20076;-73
2022/05/19 00:18:14;;;;;;;12.93;8.15;;;;;;;17.47;77.82;101699.44;4996154;28;20050;-73
2022/05/19 00:20:40;;;;;;;11.10;7.65;;;;;;;17.33;77.75;101690.06;5014013;28;20439;-73
2022/05/19 00:23:05;;;;;;;10.48;7.78;;;;;;;17.45;78.11;101698.03;5013867;28;20109;-74
2022/05/19 00:25:31;;;;;;;16.40;7.85;;;;;;;17.30;78.53;101691.28;5013791;28;20358;-73
2022/05/19 00:27:56;;;;;;;17.08;8.23;;;;;;;17.44;78.69;101692.03;5013862;28;20030;-73
2022/05/19 00:30:21;;;;;;;21.38;8.32;;;;;;;17.43;78.43;101687.78;5013693;28;20030;-73
2022/05/19 00:32:48;;;;;;;17.25;8.65;;;;;;;17.41;78.68;101692.44;5013894;28;20017;-73
2022/05/19 00:35:13;;;;;;;18.95;8.63;;;;;;;17.28;79.22;101679.44;4996106;28;20443;-73
2022/05/19 00:37:39;;;;;;;17.65;8.48;;;;;;;17.30;79.32;101682.66;5013590;28;20105;-73
2022/05/19 00:40:05;;;;;;;15.20;8.82;;;;;;;17.34;79.21;101687.25;4995990;28;20450;-73
2022/05/19 00:42:45;;;;;;;17.65;8.90;;;;;;;17.29;79.44;101683.66;5013620;28;20033;-73
2022/05/19 00:45:38;;;;;;;15.90;8.77;;;;;;;17.25;79.79;101688.50;4995914;28;20021;-73
2022/05/19 00:48:17;;;;;;;14.82;8.68;;;;;;;17.18;79.87;101679.91;5013664;28;20034;-73
2022/05/19 00:50:47;;;;;;;15.80;9.02;;;;;;;17.21;80.40;101684.72;5013411;28;20026;-74
2022/05/19 00:53:28;;;;;;;16.27;9.18;;;;;;;17.35;80.00;101675.78;4995814;28;20153;-73
2022/05/19 00:55:55;;;;;;;16.23;9.45;;;;;;;17.36;79.36;101673.97;5013433;28;20113;-73
2022/05/19 00:58:26;;;;;;;15.38;9.05;;;;;;;17.31;79.45;101676.41;5013362;28;20047;-73
2022/05/19 01:00:51;;;;;;;13.95;8.63;;;;;;;17.25;79.77;101674.66;4995737;28;20058;-73
2022/05/19 01:03:18;;;;;;;17.92;9.15;;;;;;;17.24;79.91;101652.94;5013482;28;20064;-73
2022/05/19 01:05:50;;;;;;;15.80;8.70;;;;;;;17.35;79.84;101652.28;5013219;28;20405;-73
2022/05/19 01:08:34;;;;;;;13.80;9.25;;;;;;;17.36;79.96;101658.31;5016926;28;20033;-73
2022/05/19 01:11:01;;;;;;;14.88;9.32;;;;;;;17.31;80.27;101650.28;4999653;28;20029;-73
2022/05/19 01:13:30;;;;;;;17.40;9.38;;;;;;;17.36;80.15;101645.25;4999620;28;20048;-73
2022/05/19 01:15:57;;;;;;;13.10;8.98;;;;;;;17.33;79.99;101643.06;5016151;28;20029;-73
2022/05/19 01:18:24;;;;;;;16.95;9.07;;;;;;;17.24;80.68;101633.88;5016810;28;20132;-73
2022/05/19 01:20:49;;;;;;;19.40;10.00;;;;;;;17.32;80.59;101637.03;5015911;28;20033;-74
2022/05/19 01:23:42;;;;;;;15.35;9.25;;;;;;;17.36;80.40;101632.97;5017137;28;20381;-72
2022/05/19 01:26:16;;;;;;;;;;;;;;;17.39;80.43;101636.19;4999852;28;20041;-72
2022/05/19 01:28:43;;;;;;;;;;;;;;;17.29;80.90;101626.19;4999886;28;19909;-73
2022/05/19 01:31:27;;;;;;;19.55;9.50;;;;;;;17.29;81.25;101619.16;4999382;28;19910;-73
2022/05/19 01:33:52;;;;;;;17.63;9.43;;;;;;;17.29;80.71;101608.72;5017035;28;20104;-73
2022/05/19 01:36:17;;;;;;;14.30;9.18;;;;;;;17.24;80.71;101610.38;4999360;28;20104;-72
2022/05/19 01:38:42;;;;;;;17.85;10.13;;;;;;;17.21;81.39;101605.56;4999306;28;20493;-72
2022/05/19 01:41:16;;;;;;;19.17;10.15;;;;;;;17.17;81.32;101610.38;5016751;28;20033;-72
2022/05/19 01:44:10;;;;;;;15.95;9.80;;;;;;;17.33;81.88;101596.03;5016696;28;20055;-72
2022/05/19 01:46:38;;;;;;;16.95;10.00;;;;;;;17.32;81.12;101603.06;5016792;28;20029;-73
2022/05/19 01:49:27;;;;;;;19.30;10.02;;;;;;;17.30;81.39;101602.47;5016737;28;20034;-73
2022/05/19 01:52:06;;;;;;;16.00;10.63;;;;;;;17.31;82.39;101595.44;5016756;28;20435;-73
2022/05/19 01:54:41;;;;;;;20.27;10.25;;;;;;;17.27;81.94;101595.06;5016649;28;20029;-73
2022/05/19 01:57:32;;;;;;;21.15;9.85;;;;;;;17.25;82.23;101598.88;4998840;28;20022;-73
2022/05/19 02:00:08;;;;;;;13.82;9.73;;;;;;;17.38;81.69;101596.19;4998786;28;20032;-73
2022/05/19 02:02:40;;;;;;;14.88;10.35;;;;;;;17.44;81.01;101592.72;5015060;28;20030;-73
2022/05/19 02:05:32;;;;;;;27.60;11.32;;;;;;;17.40;81.10;101599.38;5016252;28;20397;-73
2022/05/19 02:08:01;;;;;;;21.38;10.93;;;;;;;17.46;81.00;101600.34;5016429;28;20101;-73
2022/05/19 02:10:32;;;;;;;16.75;10.93;;;;;;;17.40;81.45;101594.16;5016067;28;20057;-73
2022/05/19 02:13:00;;;;;;;16.10;10.65;;;;;;;17.46;80.92;101576.84;5016129;28;20029;-73
2022/05/19 02:15:27;;;;;;;21.30;10.95;;;;;;;17.48;81.05;101585.25;5016142;28;20021;-73
2022/05/19 02:17:53;;;;;;;20.85;10.70;;;;;;;17.47;80.78;101584.47;4998257;28;20501;-73
2022/05/19 02:20:24;;;;;;;21.33;11.30;;;;;;;17.46;81.15;101580.25;4998806;28;20503;-73
2022/05/19 02:22:50;;;;;;;16.42;10.77;;;;;;;17.45;81.54;101576.03;5016234;28;20029;-73
2022/05/19 02:25:23;;;;;;;19.20;11.40;;;;;;;17.30;81.91;101562.50;4998361;28;20436;-73
2022/05/19 02:27:56;;;;;;;15.50;10.57;;;;;;;17.21;82.97;101572.41;4998296;28;20042;-73
2022/05/19 02:30:26;;;;;;;20.40;11.25;;;;;;;17.15;82.88;101547.13;4998370;28;20025;-73
2022/05/19 02:32:52;;;;;;;18.65;11.70;;;;;;;17.34;82.45;101563.66;5015858;28;20100;-73
2022/05/19 02:35:17;;;;;;;23.42;12.52;;;;;;;17.35;82.15;101565.28;5015806;28;20477;-73
2022/05/19 02:37:43;;;;;;;21.75;12.10;;;;;;;17.33;82.09;101569.91;4998338;28;20048;-73
2022/05/19 02:40:11;;;;;;;16.92;11.45;;;;;;;17.35;82.18;101568.69;5015717;28;20037;-72
2022/05/19 02:42:36;;;;;;;21.08;12.55;;;;;;;17.30;82.55;101575.56;5015612;28;20022;-72
2022/05/19 02:45:02;;;;;;;23.25;13.05;;;;;;;17.18;82.50;101556.38;4998001;28;20053;-72
2022/05/19 02:47:27;;;;;;;19.55;12.73;;;;;;;17.22;82.87;101579.22;5015496;28;20032;-73
2022/05/19 02:49:53;;;;;;;22.13;13.10;;;;;;;17.17;83.79;101575.63;4998036;28;20030;-72
2022/05/19 02:52:18;;;;;;;20.63;12.80;;;;;;;17.38;82.79;101575.31;5015469;28;20026;-73
2022/05/19 02:54:43;;;;;;;25.80;12.65;;;;;;;17.45;82.66;101578.66;4997757;28;20052;-72
2022/05/19 02:57:09;;;;;;;18.90;13.45;;;;;;;17.54;81.97;101593.03;4997816;28;20030;-72
2022/05/19 02:59:34;;;;;;;20.27;12.48;;;;;;;17.57;82.12;101603.06;5015358;28;20026;-73
2022/05/19 03:01:59;;;;;;;23.05;12.15;;;;;;;17.58;81.96;101654.34;5015445;28;20023;-79
2022/05/19 03:04:24;;;;;;;21.88;13.00;;;;;;;17.49;83.40;101734.00;5016532;28;20030;-81
2022/05/19 03:06:50;;;;;;;24.73;14.90;;;;;;;17.61;84.09;101765.50;5017644;28;20104;-81
2022/05/19 03:09:15;;;;;;;26.40;15.15;;;;;;;17.86;84.97;101783.88;5018160;28;20076;-82
2022/05/19 03:11:41;;;;;;;29.60;15.90;;;;;;;17.93;86.05;101771.56;5000872;28;20053;-82
2022/05/19 03:14:06;;;;;;;27.52;16.63;;;;;;;17.92;88.71;101751.66;5018716;28;20021;-81
2022/05/19 03:16:31;;;;;;;28.17;16.95;;;;;;;17.75;90.77;101759.19;5016969;28;20026;-81
2022/05/19 03:18:57;;;;;;;37.50;18.05;;;;;;;17.70;93.02;101748.56;5018835;28;20045;-81
2022/05/19 03:21:22;;;;;;;30.90;15.68;;;;;;;17.72;92.87;101758.78;5023522;28;20041;-82
2022/05/19 03:23:47;;;;;;;29.65;15.23;;;;;;;17.66;93.54;101757.03;5011433;28;20022;-81
2022/05/19 03:26:13;;;;;;;28.13;15.10;;;;;;;17.72;93.95;101764.00;5028609;28;20032;-83
2022/05/19 03:28:38;;;;;;;25.08;13.73;;;;;;;17.60;94.50;101764.69;5028450;28;20030;-83
2022/05/19 03:31:03;;;;;;;21.77;12.35;;;;;;;17.60;93.89;101759.44;5025841;28;20068;-82
2022/05/19 03:33:29;;;;;;;15.25;8.35;;;;;;;17.65;92.37;101773.72;5024831;28;20030;-83
2022/05/19 03:35:59;;;;;;;13.15;7.10;;;;;;;17.65;92.42;101792.81;5025881;28;20082;-82
2022/05/19 03:38:25;;;;;;;12.13;4.97;;;;;;;17.63;91.40;101784.38;5025807;28;20607;-82
2022/05/19 03:40:50;;;;;;;7.57;4.15;;;;;;;17.66;90.47;101788.38;5009588;28;20021;-82
2022/05/19 03:43:15;;;;;;;5.55;3.50;;;;;;;17.77;90.82;101779.88;5028831;28;20043;-83
2022/05/19 03:45:41;;;;;;;6.38;3.00;;;;;;;17.77;88.39;101792.94;5011034;28;20022;-83
2022/05/19 03:48:06;;;;;;;7.43;2.70;;;;;;;17.70;88.51;101784.34;5030204;28;20025;-84
2022/05/19 03:50:32;;;;;;;5.88;2.60;;;;;;;17.72;88.17;101772.69;5011078;28;20029;-83
2022/05/19 03:52:58;;;;;;;6.22;2.50;;;;;;;17.69;88.41;101764.44;5028192;28;20032;-83
2022/05/19 03:55:24;;;;;;;4.97;2.38;;;;;;;17.70;89.50;101776.50;5007049;28;20017;-84
2022/05/19 03:57:49;;;;;;;8.70;2.78;;;;;;;17.69;89.04;101765.22;5026615;28;20359;-83
2022/05/19 04:00:15;;;;;;;5.28;2.58;;;;;;;17.62;89.22;101761.06;5012952;28;20030;-83
2022/05/19 04:02:41;;;;;;;5.40;2.50;;;;;;;17.66;90.84;101755.19;5002633;28;20009;-84
2022/05/19 04:05:07;;;;;;;8.35;2.78;;;;;;;17.72;92.04;101746.53;5036362;28;20053;-83
2022/05/19 04:07:32;;;;;;;10.65;2.72;;;;;;;17.58;90.18;101742.41;5037831;28;20035;-82
2022/05/19 04:09:58;;;;;;;7.53;2.63;;;;;;;17.63;89.09;101733.91;5038275;28;20014;-81
2022/05/19 04:12:23;;;;;;;5.75;2.45;;;;;;;17.55;89.75;101729.72;5039417;28;20026;-81
2022/05/19 04:14:49;;;;;;;7.50;2.80;;;;;;;17.57;89.73;101743.41;5022248;28;20014;-81
2022/05/19 04:17:16;;;;;;;4.20;2.50;;;;;;;17.30;89.29;101722.63;5038979;28;20106;-82
2022/05/19 04:19:41;;;;;;;6.70;2.63;;;;;;;17.19;90.50;101725.09;5038998;28;20033;-81
2022/05/19 04:22:09;;;;;;;5.07;2.63;;;;;;;17.23;90.74;101721.06;5038827;28;20068;-82
2022/05/19 04:24:34;;;;;;;6.20;2.80;;;;;;;17.36;93.03;101753.16;5038789;28;20073;-82
2022/05/19 04:27:02;;;;;;;6.28;2.92;;;;;;;17.35;95.58;101761.22;5039137;28;20022;-80
2022/05/19 04:29:27;;;;;;;8.77;3.10;;;;;;;17.35;96.58;101782.91;5039027;28;20013;-81
2022/05/19 04:31:52;;;;;;;10.45;2.80;;;;;;;17.29;97.46;101777.69;5039258;28;20018;-80
2022/05/19 04:34:17;;;;;;;7.85;3.10;;;;;;;17.27;98.35;101798.81;5022102;28;20022;-80
2022/05/19 04:36:44;;;;;;;5.38;2.90;;;;;;;17.10;96.60;101795.84;5021658;28;20084;-82
2022/05/19 04:39:09;;;;;;;5.68;2.67;;;;;;;17.30;94.91;101793.16;5038875;28;20045;-82
2022/05/19 04:41:36;;;;;;;5.90;2.60;;;;;;;17.30;93.92;101792.38;5020602;28;20065;-81
2022/05/19 04:44:02;;;;;;;6.80;3.00;;;;;;;17.36;95.61;101796.78;5021380;28;20081;-82
2022/05/19 04:46:27;;;;;;;7.43;3.00;;;;;;;17.29;96.83;101799.41;5038044;28;20057;-82
2022/05/19 04:48:53;;;;;;;8.60;3.10;;;;;;;17.27;97.69;101774.50;5019261;28;20037;-82
2022/05/19 04:51:19;;;;;;;7.60;2.70;;;;;;;17.27;96.75;101772.69;5013225;28;20021;-81
2022/05/19 04:53:44;;;;;;;4.82;2.80;;;;;;;17.23;97.49;101750.59;5030731;28;20037;-81
2022/05/19 04:56:09;;;;;;;9.80;3.50;;;;;;;17.26;97.70;101759.81;5014579;28;20021;-83
2022/05/19 04:58:34;;;;;;;5.65;2.85;;;;;;;17.29;97.69;101756.78;5030361;28;20420;-82
2022/05/19 05:01:00;;;;;;;5.13;3.00;;;;;;;17.20;97.19;101739.75;5030528;28;20030;-81
2022/05/19 05:03:25;;;;;;;6.28;2.80;;;;;;;17.13;95.78;101732.75;4996431;28;20033;-82
2022/05/19 05:05:50;;;;;;;5.53;3.13;;;;;;;17.19;96.83;101727.72;5031271;28;20084;-82
2022/05/19 05:08:16;;;;;;;6.53;3.10;;;;;;;17.07;96.71;101724.97;5026979;28;20022;-80
2022/05/19 05:10:42;;;;;;;7.07;3.10;;;;;;;17.03;97.96;101714.13;5028289;28;20040;-83
2022/05/19 05:13:09;;;;;;;9.38;3.42;;;;;;;17.07;97.59;101715.31;5011931;28;20037;-82
2022/05/19 05:15:35;;;;;;;8.38;3.58;;;;;;;17.04;98.33;101709.69;5029371;28;20107;-83
2022/05/19 05:18:01;;;;;;;6.07;3.40;;;;;;;17.19;97.76;101704.22;5030189;28;20049;-83
2022/05/19 05:20:26;;;;;;;5.05;3.03;;;;;;;17.20;97.08;101713.63;5028807;28;20100;-82
2022/05/19 05:22:52;;;;;;;6.00;3.47;;;;;;;17.24;98.30;101757.44;5010242;28;20476;-81
2022/05/19 05:25:17;;;;;;;8.88;3.20;;;;;;;17.18;99.54;101752.25;5003529;28;20029;-82
2022/05/19 05:27:43;;;;;;;8.18;3.30;;;;;;;17.22;99.68;101735.94;5015830;28;20038;-83
2022/05/19 05:30:10;;;;;;;6.05;3.42;;;;;;;17.27;99.36;101725.66;5019063;28;20060;-81
2022/05/19 05:32:35;;;;;;;5.10;3.20;;;;;;;17.27;99.58;101730.91;5014740;28;20030;-82
2022/05/19 05:35:02;;;;;;;8.65;3.67;;;;;;;17.25;99.95;101712.00;5032780;28;20512;-82
2022/05/19 05:37:27;;;;;;;7.45;3.70;;;;;;;17.23;100.00;101692.31;5019823;28;20022;-84
2022/05/19 05:39:53;;;;;;;7.22;3.63;;;;;;;17.44;100.00;101705.09;5020784;28;20029;-83
2022/05/19 05:42:20;;;;;;;5.95;3.53;;;;;;;17.47;100.00;101693.41;5019589;28;20040;-83
2022/05/19 05:44:45;;;;;;;6.22;3.40;;;;;;;17.46;97.45;101689.97;5034841;28;20033;-83
2022/05/19 05:47:11;;;;;;;6.22;3.65;;;;;;;17.54;96.92;101683.72;5031767;28;20057;-82
2022/05/19 05:49:36;;;;;;;7.57;4.15;;;;;;;17.60;96.79;101670.59;5033355;28;20026;-83
2022/05/19 05:52:01;;;;;;;8.38;3.70;;;;;;;17.62;96.30;101667.78;5015565;28;20117;-84
2022/05/19 05:54:27;;;;;;;8.52;4.00;;;;;;;17.74;97.23;101647.78;5036986;28;20029;-82
2022/05/19 05:56:52;;;;;;;6.97;3.67;;;;;;;17.85;97.71;101648.94;5020797;28;20014;-82
2022/05/19 05:59:18;;;;;;;7.05;3.90;;;;;;;17.80;96.49;101639.09;5020349;28;20056;-82
2022/05/19 06:01:44;;;;;;;8.20;4.20;;;;;;;17.70;96.67;101632.75;5019487;28;20049;-83
2022/05/19 06:04:10;;;;;;;8.57;4.35;;;;;;;17.71;97.74;101629.13;5036185;28;20029;-82
2022/05/19 06:06:35;;;;;;;9.07;3.90;;;;;;;17.63;96.74;101626.75;5019094;28;20037;-80
2022/05/19 06:09:00;;;;;;;6.57;3.92;;;;;;;17.75;97.73;101625.88;5017396;28;20022;-80
2022/05/19 06:11:26;;;;;;;7.85;4.00;;;;;;;18.01;96.39;101622.25;5017178;28;20112;-79
2022/05/19 06:13:52;;;;;;;7.88;3.80;;;;;;;18.16;94.91;101632.38;5032374;28;20022;-81
2022/05/19 06:16:18;;;;;;;6.65;3.85;;;;;;;17.93;93.35;101625.13;5007681;28;20068;-81
2022/05/19 06:18:43;;;;;;;9.20;3.55;;;;;;;17.87;94.17;101633.84;5024112;28;20069;-82
2022/05/19 06:21:08;;;;;;;6.28;3.70;;;;;;;17.91;94.70;101653.31;5025133;28;20041;-81
2022/05/19 06:23:34;;;;;;;6.20;3.70;;;;;;;17.89;95.66;101652.72;5026220;28;20064;-81
2022/05/19 06:26:00;;;;;;;8.88;4.00;;;;;;;18.07;95.58;101651.97;5027078;28;20460;-81
2022/05/19 06:28:26;;;;;;;7.30;4.03;;;;;;;18.00;93.96;101643.38;5005686;28;20025;-82
2022/05/19 06:30:51;;;;;;;6.65;4.07;;;;;;;17.98;92.38;101645.38;5022833;28;20394;-81
2022/05/19 06:33:20;;;;;;;6.50;3.80;;;;;;;18.09;93.94;101642.06;5023982;28;20037;-82
2022/05/19 06:35:46;;;;;;;8.45;4.07;;;;;;;18.23;92.66;101647.97;5024352;28;20457;-81
2022/05/19 06:38:12;;;;;;;6.75;4.25;;;;;;;18.31;93.10;101637.25;5022050;28;20032;-82
2022/05/19 06:40:38;;;;;;;8.77;4.68;;;;;;;18.52;94.61;101641.22;4987029;28;20532;-80
2022/05/19 06:43:16;;;;;;;9.55;4.15;;;;;;;18.62;94.31;101630.28;5022100;28;20036;-80
2022/05/19 06:45:43;;;;;;;11.57;4.63;;;;;;;18.50;91.25;101627.59;5021731;28;20026;-81
2022/05/19 06:48:09;;;;;;;8.07;4.38;;;;;;;18.53;92.93;101627.16;5025474;28;20432;-82
2022/05/19 06:50:35;;;;;;;7.32;4.53;;;;;;;18.44;93.85;101626.63;5021218;28;20029;-80
2022/05/19 06:53:03;;;;;;;11.48;4.93;;;;;;;18.47;92.32;101623.59;5027924;28;20030;-80
2022/05/19 06:55:32;;;;;;;7.13;4.50;;;;;;;18.40;93.26;101628.06;5003295;28;20026;-82
2022/05/19 06:57:58;;;;;;;10.98;4.80;;;;;;;18.41;92.45;101618.41;5020965;28;20029;-80
2022/05/19 07:00:26;;;;;;;8.60;4.28;;;;;;;18.63;93.99;101634.47;4998739;28;20029;-79
2022/05/19 07:02:54;;;;;;;6.63;4.43;;;;;;;18.69;96.06;101629.16;5017562;28;20026;-80
2022/05/19 07:05:23;;;;;;;9.48;4.18;;;;;;;18.76;93.24;101631.72;5016092;28;20116;-80
2022/05/19 07:07:48;;;;;;;7.85;4.55;;;;;;;18.61;91.91;101623.41;5001203;28;20058;-80
2022/05/19 07:10:19;;;;;;;9.02;4.40;;;;;;;18.81;89.36;101638.91;5018305;28;20034;-81
2022/05/19 07:12:45;;;;;;;8.82;4.68;;;;;;;18.66;91.02;101650.53;5018700;28;20036;-80
2022/05/19 07:15:15;;;;;;;9.18;4.80;;;;;;;18.80;91.90;101647.78;5015511;28;20108;-78
2022/05/19 07:17:41;;;;;;;9.05;4.38;;;;;;;19.15;91.08;101645.31;4998266;28;20042;-80
2022/05/19 07:22:50;;;;;;;7.10;4.43;;;;;;;19.06;88.55;101638.81;5015014;28;20074;-81
2022/05/19 07:25:16;;;;;;;7.75;4.57;;;;;;;19.21;88.33;101638.38;4996849;28;20057;-79
2022/05/19 07:27:42;;;;;;;6.97;4.28;;;;;;;19.00;89.37;101640.47;5014714;28;20044;-80
2022/05/19 07:30:09;;;;;;;7.05;4.13;;;;;;;19.16;88.70;101642.50;5014351;28;20048;-78
2022/05/19 07:32:35;;;;;;;6.45;4.25;;;;;;;19.19;89.14;101643.88;5014532;28;20059;-80
2022/05/19 07:35:01;;;;;;;7.35;4.60;;;;;;;19.58;88.33;101657.38;4998283;28;20029;-79
2022/05/19 07:37:26;;;;;;;6.63;4.30;;;;;;;19.78;86.73;101663.16;5015822;28;20014;-79
2022/05/19 07:39:52;;;;;;;7.25;4.20;;;;;;;20.09;85.36;101669.09;5018185;28;20505;-80
2022/05/19 07:42:18;;;;;;;6.55;4.30;;;;;;;20.30;85.24;101672.97;5016797;28;20033;-80
2022/05/19 07:44:44;;;;;;;9.27;4.07;;;;;;;20.31;82.41;101669.28;5015917;28;20478;-79
2022/05/19 07:47:09;;;;;;;8.98;5.05;;;;;;;20.49;82.37;101669.16;5018935;28;20033;-79
2022/05/19 07:49:35;;;;;;;5.65;3.90;;;;;;;19.92;83.26;101660.31;5018612;28;20026;-80
2022/05/19 07:52:00;;;;;;;6.45;3.90;;;;;;;20.14;83.89;101663.97;5001016;28;20053;-80
2022/05/19 07:54:27;;;;;;;8.45;3.90;;;;;;;19.87;84.45;101665.44;5019703;28;20388;-80
2022/05/19 07:56:53;;;;;;;7.20;4.10;;;;;;;20.41;83.54;101661.66;5002905;28;20080;-80
2022/05/19 07:59:19;;;;;;;6.65;4.03;;;;;;;20.61;81.62;101678.88;5018294;28;20032;-78
2022/05/19 08:01:45;;;;;;;6.28;3.75;;;;;;;20.26;83.18;101677.09;5018993;28;20112;-79
2022/05/19 08:04:11;;;;;;;5.35;3.53;;;;;;;20.24;82.08;101682.56;5018234;28;20385;-80
2022/05/19 08:06:37;;;;;;;5.05;3.30;;;;;;;20.53;80.65;101677.41;5018719;28;20116;-81
2022/05/19 08:10:20;;;;;;;7.22;3.70;;;;;;;20.46;82.01;101671.47;5017371;28;20100;-80
2022/05/19 08:11:50;;;;;;;5.20;3.42;;;;;;;20.51;81.55;101668.94;5016864;28;20030;-79
2022/05/19 08:16:59;;;;;;;9.02;3.95;;;;;;;20.95;80.73;101664.06;5015769;28;20109;-79
2022/05/19 08:19:24;;;;;;;7.75;3.97;;;;;;;21.52;82.32;101665.84;5028555;23;20040;-43
2022/05/19 08:21:50;;;;;;;5.40;3.28;;;;;;;21.92;82.75;101652.50;5052730;28;20426;-43
2022/05/19 08:24:15;;;;;;;7.63;3.20;;;;;;;22.17;76.84;101661.81;5053519;28;20027;-41
2022/05/19 08:26:41;;;;;;;5.55;3.10;;;;;;;22.46;73.70;101659.84;5053874;28;20396;-43
2022/05/19 08:29:06;;;;;;;4.72;3.30;;;;;;;22.61;73.89;101654.72;5053692;28;20025;-41
2022/05/19 08:31:31;;;;;;;5.47;3.35;;;;;;;22.71;74.33;101656.72;5053646;28;20359;-41
2022/05/19 08:33:58;;;;;;;6.70;3.72;;;;;;;22.36;72.84;101639.44;5054076;28;20078;-45
2022/05/19 08:36:25;;;;;;;6.25;3.30;;;;;;;22.71;71.15;101651.44;5053729;28;20017;-43
2022/05/19 08:38:51;;;;;;;7.22;3.10;;;;;;;23.37;69.45;101659.22;5053781;28;20364;-41
2022/05/19 08:41:33;;;;;;;6.10;3.35;;;;;;;23.87;68.98;101660.66;5053490;28;20031;-43
2022/05/19 08:44:10;;;;;;;7.28;3.28;;;;;;;23.30;68.05;101655.97;5053489;28;20386;-43
2022/05/19 08:46:39;;;;;;;6.18;3.03;;;;;;;22.49;69.08;101660.13;5053668;28;20456;-42
2022/05/19 08:49:12;;;;;;;6.55;3.38;;;;;;;22.35;75.17;101661.53;5053592;28;20399;-42
2022/05/19 08:51:48;;;;;;;4.22;2.92;;;;;;;21.88;76.60;101667.19;5053523;28;20025;-40
2022/05/19 08:54:20;;;;;;;6.15;2.92;;;;;;;21.77;78.58;101670.69;5053629;28;20025;-42
2022/05/19 08:56:58;;;;;;;4.37;2.93;;;;;;;21.63;78.47;101675.47;5066512;28;20078;-41
2022/05/19 08:59:42;;;;;;;5.57;2.90;;;;;;;21.51;75.89;101662.41;5073850;28;20024;-42
2022/05/19 09:02:13;;;;;;;4.22;3.08;;;;;;;21.36;75.01;101659.50;5073535;28;20028;-42
2022/05/19 09:05:07;;;;;;;4.13;2.85;;;;;;;21.47;75.14;101666.56;5073190;28;20040;-38
2022/05/19 09:07:57;;;;;;;6.30;3.17;;;;;;;21.45;75.12;101666.00;5073488;28;20028;-42
2022/05/19 09:10:31;;;;;;;4.07;2.60;;;;;;;21.08;73.89;101674.25;5073534;28;20396;-44
2022/05/19 09:13:08;;;;;;;5.45;3.00;;;;;;;21.02;76.57;101677.84;5073469;28;20029;-41
2022/05/19 09:15:35;;;;;;;6.40;3.20;;;;;;;21.05;77.12;101669.47;5071936;28;20017;-41
2022/05/19 09:18:01;;;;;;;4.65;2.90;;;;;;;20.71;78.87;101671.19;5072115;28;20025;-42
2022/05/19 09:20:37;;;;;;;7.00;3.58;;;;;;;20.87;79.25;101665.22;5087006;28;20493;-41
2022/05/19 09:23:04;;;;;;;6.95;3.33;;;;;;;21.05;79.70;101668.69;5093497;28;20023;-42
2022/05/19 09:25:30;;;;;;;6.93;3.40;;;;;;;21.43;78.38;101656.75;5074921;28;20066;-42
2022/05/19 09:27:59;;;;;;;5.78;3.58;;;;;;;22.59;73.96;101645.50;5094421;28;20412;-41
2022/05/19 09:30:47;;;;;;;6.30;3.90;;;;;;;23.59;69.17;101644.09;5097472;28;20034;-41
2022/05/19 09:33:19;;;;;;;8.93;3.50;;;;;;;24.44;66.53;101644.06;5097510;28;20115;-44
2022/05/19 09:35:50;;;;;;;7.60;3.40;;;;;;;24.88;62.95;101653.44;5097498;28;20113;-42
2022/05/19 09:38:33;;;;;;;5.25;3.28;;;;;;;24.82;63.99;101665.06;5097155;28;20024;-43
2022/05/19 09:41:02;;;;;;;5.18;2.78;;;;;;;25.05;62.76;101674.34;5097685;28;20063;-44
2022/05/19 09:43:33;;;;;;;4.22;2.90;;;;;;;23.92;65.03;101665.97;5096959;28;20020;-44
2022/05/19 09:46:14;;;;;;;3.60;2.42;;;;;;;24.27;61.47;101660.09;5097141;28;20419;-44
2022/05/19 09:48:48;;;;;;;4.07;2.55;;;;;;;24.85;60.89;101651.31;5097406;28;20032;-43
2022/05/19 09:51:18;;;;;;;11.20;2.80;;;;;;;25.40;60.15;101647.16;5096769;28;20031;-42
2022/05/19 09:53:48;;;;;;;4.57;2.40;;;;;;;26.24;55.18;101645.69;5079038;28;20035;-42
2022/05/19 09:56:17;;;;;;;7.32;2.75;;;;;;;25.46;56.68;101645.28;5096645;28;20024;-43
2022/05/19 09:58:45;;;;;;;4.88;2.60;;;;;;;25.79;55.92;101649.22;5096250;28;20028;-42
2022/05/19 10:01:28;;;;;;;4.32;2.50;;;;;;;25.33;58.85;101639.50;5096111;28;20024;-46
2022/05/19 10:03:58;;;;;;;7.00;2.80;;;;;;;25.94;57.38;101628.03;5096826;28;20024;-42
2022/05/19 10:06:54;;;;;;;3.92;2.50;;;;;;;25.52;54.85;101621.22;5096645;28;20065;-41
2022/05/19 10:09:43;;;;;;;5.38;2.47;;;;;;;24.86;57.25;101607.94;5086045;28;20047;-42
2022/05/19 10:12:12;;;;;;;5.88;2.50;;;;;;;26.72;54.11;101594.81;5096448;28;20020;-45
2022/05/19 10:14:43;;;;;;;6.53;2.70;;;;;;;26.58;52.96;101589.34;5095650;28;20031;-44
2022/05/19 10:17:27;;;;;;;3.33;2.20;;;;;;;26.60;51.57;101581.13;5096201;28;20055;-43
2022/05/19 10:20:19;;;;;;;4.38;2.30;;;;;;;26.87;51.45;101570.06;5095956;28;20495;-42
2022/05/19 10:22:56;;;;;;;3.30;2.00;;;;;;;26.43;53.42;101571.66;5096680;28;20103;-43
2022/05/19 10:25:51;;;;;;;3.40;2.30;;;;;;;26.05;53.30;101563.38;5096177;28;20028;-43
2022/05/19 10:31:18;;;;;;;6.90;2.90;;;;;;;26.06;54.46;101543.75;5096609;28;20096;-41
2022/05/19 10:34:01;;;;;;;4.47;2.67;;;;;;;26.54;54.98;101540.63;5096112;28;20032;-41
2022/05/19 10:37:00;;;;;;;4.30;2.35;;;;;;;25.98;55.36;101544.34;5095725;28;20031;-42
2022/05/19 10:39:44;;;;;;;4.30;2.50;;;;;;;26.62;53.25;101563.09;5094903;28;20450;-42
2022/05/19 10:42:21;;;;;;;3.50;1.75;;;;;;;26.30;53.23;101566.97;5096069;28;20470;-41
2022/05/19 10:45:16;;;;;;;4.22;2.40;;;;;;;26.03;49.88;101573.44;5095699;28;20028;-43
2022/05/19 10:48:00;;;;;;;6.63;2.38;;;;;;;25.27;51.38;101581.56;5095754;28;20028;-42
2022/05/19 10:50:30;;;;;;;4.95;2.60;;;;;;;24.77;53.88;101587.34;5095952;28;20165;-42
2022/05/19 10:53:23;;;;;;;5.40;2.72;;;;;;;24.48;55.88;101600.22;5095845;28;20024;-42
2022/05/19 10:56:11;;;;;;;5.40;3.00;;;;;;;23.97;58.60;101621.13;5096218;28;20119;-42
2022/05/19 10:58:37;;;;;;;4.93;2.83;;;;;;;23.91;60.45;101622.16;5078605;28;20020;-42
2022/05/19 11:01:22;;;;;;;5.95;2.92;;;;;;;23.77;61.17;101615.75;5095447;28;20032;-43
2022/05/19 11:03:47;;;;;;;5.07;3.53;;;;;;;23.72;61.74;101621.00;5095910;28;20366;-42
2022/05/19 11:06:36;;;;;;;6.55;3.30;;;;;;;23.78;61.99;101615.47;5095849;28;20027;-43
2022/05/19 11:09:20;;;;;;;6.95;4.40;;;;;;;23.62;63.05;101611.94;5095653;28;20028;-43
2022/05/19 11:12:02;;;;;;;7.53;4.00;;;;;;;23.39;64.28;101621.00;5077148;28;20035;-42
2022/05/19 11:14:52;;;;;;;6.53;4.15;;;;;;;23.38;65.30;101644.97;5095135;28;20074;-46
2022/05/19 11:17:37;;;;;;;6.65;3.95;;;;;;;23.23;67.73;101626.41;5095420;28;20016;-42
2022/05/19 11:20:15;;;;;;;6.18;4.20;;;;;;;23.32;66.70;101638.88;5076809;28;20068;-43
2022/05/19 11:22:42;;;;;;;9.07;4.32;;;;;;;23.16;67.09;101635.31;5094968;28;20035;-41
2022/05/19 11:28:14;;;;;;;6.55;4.00;;;;;;;23.06;70.85;101651.03;5095801;28;20047;-41
2022/05/19 11:30:46;;;;;;;6.75;4.55;;;;;;;23.01;69.42;101658.09;5095145;28;20024;-41
2022/05/19 11:33:17;;;;;;;7.68;4.50;;;;;;;22.79;72.39;101661.53;5095073;28;20436;-40
2022/05/19 11:35:46;;;;;;;7.45;4.20;;;;;;;22.68;72.89;101673.00;5095095;28;20027;-41
2022/05/19 11:38:33;;;;;;;8.68;4.28;;;;;;;22.54;75.63;101680.47;5095019;28;20102;-42
2022/05/19 11:41:06;;;;;;;6.95;4.50;;;;;;;22.49;75.17;101699.63;5094994;28;20032;-43
2022/05/19 11:43:43;;;;;;;10.23;5.05;;;;;;;22.35;77.94;101730.00;5094865;28;20024;-42
2022/05/19 11:46:10;;;;;;;23.50;7.65;;;;;;;22.00;83.84;101801.31;5094616;28;20356;-43